sensor_id;sensor_type;location;lat;lon;timestamp;temperature;humidity
53904;DHT22;39812;52.430;16.936;2022-08-01T00:00:27;16.20;99.90
53904;DHT22;39812;52.430;16.936;2022-08-01T00:02:52;16.30;99.90
53904;DHT22;39812;52.430;16.936;2022-08-01T00:05:18;16.30;99.90
53904;DHT22;39812;52.430;16.936;2022-08-01T00:07:44;16.30;99.90
53904;DHT22;39812;52.430;16.936;2022-08-01T00:10:12;16.20;99.90
53904;DHT22;39812;52.430;16.936;2022-08-01T00:12:38;16.30;99.90
53904;DHT22;39812;52.430;16.936;2022-08-01T00:15:05;16.30;99.90
53904;DHT22;39812;52.430;16.936;2022-08-01T00:17:32;16.30;99.90
53904;DHT22;39812;52.430;16.936;2022-08-01T00:19:58;16.20;99.90
53904;DHT22;39812;52.430;16.936;2022-08-01T00:22:24;16.20;99.90
53904;DHT22;39812;52.430;16.936;2022-08-01T00:24:49;16.20;99.90
53904;DHT22;39812;52.430;16.936;2022-08-01T00:27:15;16.10;99.90
53904;DHT22;39812;52.430;16.936;2022-08-01T00:29:40;16.10;99.90
53904;DHT22;39812;52.430;16.936;2022-08-01T00:32:06;16.10;99.90
53904;DHT22;39812;52.430;16.936;2022-08-01T00:34:31;16.10;99.90
53904;DHT22;39812;52.430;16.936;2022-08-01T00:36:57;16.10;99.90
53904;DHT22;39812;52.430;16.936;2022-08-01T00:39:22;16.00;99.90
53904;DHT22;39812;52.430;16.936;2022-08-01T00:41:48;16.00;99.90
53904;DHT22;39812;52.430;16.936;2022-08-01T00:44:13;16.00;99.90
53904;DHT22;39812;52.430;16.936;2022-08-01T00:46:39;16.00;99.90
53904;DHT22;39812;52.430;16.936;2022-08-01T00:49:04;16.10;99.90
53904;DHT22;39812;52.430;16.936;2022-08-01T00:51:30;16.10;99.90
53904;DHT22;39812;52.430;16.936;2022-08-01T00:53:56;16.10;99.90
53904;DHT22;39812;52.430;16.936;2022-08-01T00:56:24;16.10;99.90
53904;DHT22;39812;52.430;16.936;2022-08-01T00:58:50;16.10;99.90
53904;DHT22;39812;52.430;16.936;2022-08-01T01:01:17;16.10;99.90
53904;DHT22;39812;52.430;16.936;2022-08-01T01:03:43;16.20;99.90
53904;DHT22;39812;52.430;16.936;2022-08-01T01:06:33;16.30;99.90
53904;DHT22;39812;52.430;16.936;2022-08-01T01:14:54;16.40;99.90
53904;DHT22;39812;52.430;16.936;2022-08-01T01:17:27;16.40;99.90
53904;DHT22;39812;52.430;16.936;2022-08-01T01:19:55;16.40;99.90
53904;DHT22;39812;52.430;16.936;2022-08-01T01:22:33;16.30;99.90
53904;DHT22;39812;52.430;16.936;2022-08-01T01:25:34;16.30;99.90
53904;DHT22;39812;52.430;16.936;2022-08-01T01:28:19;16.20;99.90
53904;DHT22;39812;52.430;16.936;2022-08-01T01:30:49;16.10;99.90
53904;DHT22;39812;52.430;16.936;2022-08-01T01:33:16;15.90;99.90
53904;DHT22;39812;52.430;16.936;2022-08-01T01:35:46;15.90;99.90
53904;DHT22;39812;52.430;16.936;2022-08-01T01:38:19;15.90;99.90
53904;DHT22;39812;52.430;16.936;2022-08-01T01:40:47;15.90;99.90
53904;DHT22;39812;52.430;16.936;2022-08-01T01:43:15;15.90;99.90
53904;DHT22;39812;52.430;16.936;2022-08-01T01:45:41;15.90;99.90
53904;DHT22;39812;52.430;16.936;2022-08-01T01:48:09;15.90;99.90
53904;DHT22;39812;52.430;16.936;2022-08-01T01:50:36;15.90;99.90
53904;DHT22;39812;52.430;16.936;2022-08-01T01:53:04;15.80;99.90
53904;DHT22;39812;52.430;16.936;2022-08-01T01:55:30;15.80;99.90
53904;DHT22;39812;52.430;16.936;2022-08-01T01:57:57;15.70;99.90
53904;DHT22;39812;52.430;16.936;2022-08-01T02:00:24;15.70;99.90
53904;DHT22;39812;52.430;16.936;2022-08-01T02:02:51;15.70;99.90
53904;DHT22;39812;52.430;16.936;2022-08-01T02:05:18;15.60;99.90
53904;DHT22;39812;52.430;16.936;2022-08-01T02:07:44;15.60;99.90
53904;DHT22;39812;52.430;16.936;2022-08-01T02:10:11;15.60;99.90
53904;DHT22;39812;52.430;16.936;2022-08-01T02:12:41;15.60;99.90
53904;DHT22;39812;52.430;16.936;2022-08-01T02:15:07;15.70;99.90
53904;DHT22;39812;52.430;16.936;2022-08-01T02:17:37;15.70;99.90
53904;DHT22;39812;52.430;16.936;2022-08-01T02:20:05;15.80;99.90
53904;DHT22;39812;52.430;16.936;2022-08-01T02:22:33;15.90;99.90
53904;DHT22;39812;52.430;16.936;2022-08-01T02:25:15;15.90;99.90
53904;DHT22;39812;52.430;16.936;2022-08-01T02:27:47;16.00;99.90
53904;DHT22;39812;52.430;16.936;2022-08-01T02:30:16;16.10;99.90
53904;DHT22;39812;52.430;16.936;2022-08-01T02:32:48;16.10;99.90
53904;DHT22;39812;52.430;16.936;2022-08-01T02:35:26;16.20;99.90
53904;DHT22;39812;52.430;16.936;2022-08-01T02:37:54;16.20;99.90
53904;DHT22;39812;52.430;16.936;2022-08-01T02:40:20;16.20;99.90
53904;DHT22;39812;52.430;16.936;2022-08-01T02:42:49;16.30;99.90
53904;DHT22;39812;52.430;16.936;2022-08-01T02:45:17;16.30;99.90
53904;DHT22;39812;52.430;16.936;2022-08-01T02:47:44;16.30;99.90
53904;DHT22;39812;52.430;16.936;2022-08-01T02:50:12;16.30;99.90
53904;DHT22;39812;52.430;16.936;2022-08-01T02:52:40;16.30;99.90
53904;DHT22;39812;52.430;16.936;2022-08-01T02:55:08;16.30;99.90
53904;DHT22;39812;52.430;16.936;2022-08-01T02:57:35;16.30;99.90
53904;DHT22;39812;52.430;16.936;2022-08-01T03:00:03;16.40;99.90
53904;DHT22;39812;52.430;16.936;2022-08-01T03:02:31;16.40;99.90
53904;DHT22;39812;52.430;16.936;2022-08-01T03:04:57;16.40;99.90
53904;DHT22;39812;52.430;16.936;2022-08-01T03:07:24;16.40;99.90
53904;DHT22;39812;52.430;16.936;2022-08-01T03:09:51;16.50;99.90
53904;DHT22;39812;52.430;16.936;2022-08-01T03:12:20;16.50;99.90
53904;DHT22;39812;52.430;16.936;2022-08-01T03:14:47;16.50;99.90
53904;DHT22;39812;52.430;16.936;2022-08-01T03:17:15;16.60;99.90
53904;DHT22;39812;52.430;16.936;2022-08-01T03:19:44;16.60;99.90
53904;DHT22;39812;52.430;16.936;2022-08-01T03:22:11;16.60;99.90
53904;DHT22;39812;52.430;16.936;2022-08-01T03:24:40;16.60;99.90
53904;DHT22;39812;52.430;16.936;2022-08-01T03:27:07;16.70;99.90
53904;DHT22;39812;52.430;16.936;2022-08-01T03:29:34;16.70;99.90
53904;DHT22;39812;52.430;16.936;2022-08-01T03:32:02;16.70;99.90
53904;DHT22;39812;52.430;16.936;2022-08-01T03:34:29;16.80;99.90
53904;DHT22;39812;52.430;16.936;2022-08-01T03:37:17;16.80;99.90
53904;DHT22;39812;52.430;16.936;2022-08-01T03:39:52;16.90;99.90
53904;DHT22;39812;52.430;16.936;2022-08-01T03:42:22;16.90;99.90
53904;DHT22;39812;52.430;16.936;2022-08-01T03:44:54;16.90;99.90
53904;DHT22;39812;52.430;16.936;2022-08-01T03:47:26;16.90;99.90
53904;DHT22;39812;52.430;16.936;2022-08-01T03:49:55;16.90;99.90
53904;DHT22;39812;52.430;16.936;2022-08-01T03:52:24;16.90;99.90
53904;DHT22;39812;52.430;16.936;2022-08-01T03:54:52;16.90;99.90
53904;DHT22;39812;52.430;16.936;2022-08-01T03:57:19;16.90;99.90
53904;DHT22;39812;52.430;16.936;2022-08-01T03:59:46;16.90;99.90
53904;DHT22;39812;52.430;16.936;2022-08-01T04:02:12;17.00;99.90
53904;DHT22;39812;52.430;16.936;2022-08-01T04:04:40;17.00;99.90
53904;DHT22;39812;52.430;16.936;2022-08-01T04:07:24;17.00;99.90
53904;DHT22;39812;52.430;16.936;2022-08-01T04:09:50;17.00;99.90
53904;DHT22;39812;52.430;16.936;2022-08-01T04:12:16;17.00;99.90
53904;DHT22;39812;52.430;16.936;2022-08-01T04:14:41;17.10;99.90
53904;DHT22;39812;52.430;16.936;2022-08-01T04:17:07;17.10;99.90
53904;DHT22;39812;52.430;16.936;2022-08-01T04:19:32;17.20;99.90
53904;DHT22;39812;52.430;16.936;2022-08-01T04:21:58;17.30;99.90
53904;DHT22;39812;52.430;16.936;2022-08-01T04:24:24;17.40;99.90
53904;DHT22;39812;52.430;16.936;2022-08-01T04:26:52;17.50;99.90
53904;DHT22;39812;52.430;16.936;2022-08-01T04:29:19;17.60;99.90
53904;DHT22;39812;52.430;16.936;2022-08-01T04:31:46;17.70;99.90
53904;DHT22;39812;52.430;16.936;2022-08-01T04:34:16;17.80;99.90
53904;DHT22;39812;52.430;16.936;2022-08-01T04:36:42;17.90;99.90
53904;DHT22;39812;52.430;16.936;2022-08-01T04:39:09;18.00;99.90
53904;DHT22;39812;52.430;16.936;2022-08-01T04:41:36;18.20;99.90
53904;DHT22;39812;52.430;16.936;2022-08-01T04:44:02;18.30;99.90
53904;DHT22;39812;52.430;16.936;2022-08-01T04:46:28;18.40;99.90
53904;DHT22;39812;52.430;16.936;2022-08-01T04:48:55;18.50;99.90
53904;DHT22;39812;52.430;16.936;2022-08-01T04:51:21;18.50;99.90
53904;DHT22;39812;52.430;16.936;2022-08-01T04:53:48;18.40;99.90
53904;DHT22;39812;52.430;16.936;2022-08-01T04:56:14;18.40;99.90
53904;DHT22;39812;52.430;16.936;2022-08-01T04:58:40;18.40;99.90
53904;DHT22;39812;52.430;16.936;2022-08-01T05:01:07;18.40;99.90
53904;DHT22;39812;52.430;16.936;2022-08-01T05:03:33;18.30;99.90
53904;DHT22;39812;52.430;16.936;2022-08-01T05:05:59;18.40;99.90
53904;DHT22;39812;52.430;16.936;2022-08-01T05:08:24;18.30;99.90
53904;DHT22;39812;52.430;16.936;2022-08-01T05:10:49;18.40;99.90
53904;DHT22;39812;52.430;16.936;2022-08-01T05:13:15;18.40;99.90
53904;DHT22;39812;52.430;16.936;2022-08-01T05:15:41;18.40;99.90
53904;DHT22;39812;52.430;16.936;2022-08-01T05:18:06;18.50;99.90
53904;DHT22;39812;52.430;16.936;2022-08-01T05:20:32;18.50;99.90
53904;DHT22;39812;52.430;16.936;2022-08-01T05:22:57;18.60;99.90
53904;DHT22;39812;52.430;16.936;2022-08-01T05:25:23;18.50;99.90
53904;DHT22;39812;52.430;16.936;2022-08-01T05:27:49;18.60;99.90
53904;DHT22;39812;52.430;16.936;2022-08-01T05:30:15;18.60;99.90
53904;DHT22;39812;52.430;16.936;2022-08-01T05:32:40;18.80;99.90
53904;DHT22;39812;52.430;16.936;2022-08-01T05:35:06;18.80;99.90
53904;DHT22;39812;52.430;16.936;2022-08-01T05:37:32;18.90;99.90
53904;DHT22;39812;52.430;16.936;2022-08-01T05:39:58;18.80;99.90
53904;DHT22;39812;52.430;16.936;2022-08-01T05:42:23;18.80;99.90
53904;DHT22;39812;52.430;16.936;2022-08-01T05:44:48;18.60;99.90
53904;DHT22;39812;52.430;16.936;2022-08-01T05:47:16;18.50;99.90
53904;DHT22;39812;52.430;16.936;2022-08-01T05:49:41;18.40;99.90
53904;DHT22;39812;52.430;16.936;2022-08-01T05:52:07;18.40;99.90
53904;DHT22;39812;52.430;16.936;2022-08-01T05:54:32;18.50;99.90
53904;DHT22;39812;52.430;16.936;2022-08-01T05:56:58;18.60;99.90
53904;DHT22;39812;52.430;16.936;2022-08-01T05:59:27;18.50;99.90
53904;DHT22;39812;52.430;16.936;2022-08-01T06:01:53;18.60;99.90
53904;DHT22;39812;52.430;16.936;2022-08-01T06:04:18;18.70;99.90
53904;DHT22;39812;52.430;16.936;2022-08-01T06:06:44;18.80;99.90
53904;DHT22;39812;52.430;16.936;2022-08-01T06:09:09;19.00;99.90
53904;DHT22;39812;52.430;16.936;2022-08-01T06:11:35;19.20;99.90
53904;DHT22;39812;52.430;16.936;2022-08-01T06:14:00;19.40;99.90
53904;DHT22;39812;52.430;16.936;2022-08-01T06:16:25;19.50;99.90
53904;DHT22;39812;52.430;16.936;2022-08-01T06:18:51;19.60;99.90
53904;DHT22;39812;52.430;16.936;2022-08-01T06:21:16;19.60;99.90
53904;DHT22;39812;52.430;16.936;2022-08-01T06:23:42;19.70;99.90
53904;DHT22;39812;52.430;16.936;2022-08-01T06:26:08;19.80;99.90
53904;DHT22;39812;52.430;16.936;2022-08-01T06:28:33;19.80;99.90
53904;DHT22;39812;52.430;16.936;2022-08-01T06:30:59;19.90;99.90
53904;DHT22;39812;52.430;16.936;2022-08-01T06:33:25;19.90;99.90
53904;DHT22;39812;52.430;16.936;2022-08-01T06:35:51;20.00;99.90
53904;DHT22;39812;52.430;16.936;2022-08-01T06:38:18;20.10;99.90
53904;DHT22;39812;52.430;16.936;2022-08-01T06:40:43;20.10;99.90
53904;DHT22;39812;52.430;16.936;2022-08-01T06:43:09;20.10;99.90
53904;DHT22;39812;52.430;16.936;2022-08-01T06:45:37;20.10;99.90
53904;DHT22;39812;52.430;16.936;2022-08-01T06:48:02;20.10;99.90
53904;DHT22;39812;52.430;16.936;2022-08-01T06:50:28;20.10;99.90
53904;DHT22;39812;52.430;16.936;2022-08-01T06:52:53;20.00;99.90
53904;DHT22;39812;52.430;16.936;2022-08-01T06:55:19;19.80;99.90
53904;DHT22;39812;52.430;16.936;2022-08-01T06:57:47;19.70;99.90
53904;DHT22;39812;52.430;16.936;2022-08-01T07:00:13;19.60;99.90
53904;DHT22;39812;52.430;16.936;2022-08-01T07:02:39;19.70;99.90
53904;DHT22;39812;52.430;16.936;2022-08-01T07:05:05;19.80;99.90
53904;DHT22;39812;52.430;16.936;2022-08-01T07:07:31;19.80;99.90
53904;DHT22;39812;52.430;16.936;2022-08-01T07:09:56;19.70;99.90
53904;DHT22;39812;52.430;16.936;2022-08-01T07:12:22;19.70;99.90
53904;DHT22;39812;52.430;16.936;2022-08-01T07:14:47;19.70;99.90
53904;DHT22;39812;52.430;16.936;2022-08-01T07:17:13;19.70;99.90
53904;DHT22;39812;52.430;16.936;2022-08-01T07:19:38;19.80;99.90
53904;DHT22;39812;52.430;16.936;2022-08-01T07:22:04;19.90;99.90
53904;DHT22;39812;52.430;16.936;2022-08-01T07:24:29;20.30;99.90
53904;DHT22;39812;52.430;16.936;2022-08-01T07:26:55;20.50;99.90
53904;DHT22;39812;52.430;16.936;2022-08-01T07:29:23;21.00;99.90
53904;DHT22;39812;52.430;16.936;2022-08-01T07:31:50;20.90;99.90
53904;DHT22;39812;52.430;16.936;2022-08-01T07:34:15;21.10;99.90
53904;DHT22;39812;52.430;16.936;2022-08-01T07:36:41;21.10;99.90
53904;DHT22;39812;52.430;16.936;2022-08-01T07:39:06;21.10;99.90
53904;DHT22;39812;52.430;16.936;2022-08-01T07:41:32;20.80;99.90
53904;DHT22;39812;52.430;16.936;2022-08-01T07:43:57;20.80;99.90
53904;DHT22;39812;52.430;16.936;2022-08-01T07:46:23;20.80;99.90
53904;DHT22;39812;52.430;16.936;2022-08-01T07:48:48;20.80;99.90
53904;DHT22;39812;52.430;16.936;2022-08-01T07:51:14;20.70;99.90
53904;DHT22;39812;52.430;16.936;2022-08-01T07:53:39;20.70;99.90
53904;DHT22;39812;52.430;16.936;2022-08-01T07:56:05;20.70;99.90
53904;DHT22;39812;52.430;16.936;2022-08-01T07:58:31;20.60;99.90
53904;DHT22;39812;52.430;16.936;2022-08-01T08:00:57;20.80;99.90
53904;DHT22;39812;52.430;16.936;2022-08-01T08:03:22;21.00;99.90
53904;DHT22;39812;52.430;16.936;2022-08-01T08:05:48;20.90;99.90
53904;DHT22;39812;52.430;16.936;2022-08-01T08:08:13;21.10;99.90
53904;DHT22;39812;52.430;16.936;2022-08-01T08:10:40;21.40;99.90
53904;DHT22;39812;52.430;16.936;2022-08-01T08:13:06;21.40;99.90
53904;DHT22;39812;52.430;16.936;2022-08-01T08:15:31;21.50;99.90
53904;DHT22;39812;52.430;16.936;2022-08-01T08:17:57;21.30;99.90
53904;DHT22;39812;52.430;16.936;2022-08-01T08:20:22;21.40;99.90
53904;DHT22;39812;52.430;16.936;2022-08-01T08:22:51;21.10;99.90
53904;DHT22;39812;52.430;16.936;2022-08-01T08:25:17;21.10;99.90
53904;DHT22;39812;52.430;16.936;2022-08-01T08:27:44;21.30;99.90
53904;DHT22;39812;52.430;16.936;2022-08-01T08:30:10;21.40;99.90
53904;DHT22;39812;52.430;16.936;2022-08-01T08:32:36;21.60;99.90
53904;DHT22;39812;52.430;16.936;2022-08-01T08:35:03;21.90;99.90
53904;DHT22;39812;52.430;16.936;2022-08-01T08:37:29;22.30;99.90
53904;DHT22;39812;52.430;16.936;2022-08-01T08:39:55;22.60;99.90
53904;DHT22;39812;52.430;16.936;2022-08-01T08:42:20;23.00;99.50
53904;DHT22;39812;52.430;16.936;2022-08-01T08:44:46;23.60;98.60
53904;DHT22;39812;52.430;16.936;2022-08-01T08:47:13;23.80;98.10
53904;DHT22;39812;52.430;16.936;2022-08-01T08:49:39;23.80;97.70
53904;DHT22;39812;52.430;16.936;2022-08-01T08:52:06;23.70;97.60
53904;DHT22;39812;52.430;16.936;2022-08-01T08:54:32;24.00;97.50
53904;DHT22;39812;52.430;16.936;2022-08-01T08:57:00;24.40;96.80
53904;DHT22;39812;52.430;16.936;2022-08-01T08:59:26;24.50;96.40
53904;DHT22;39812;52.430;16.936;2022-08-01T09:01:53;24.90;96.00
53904;DHT22;39812;52.430;16.936;2022-08-01T09:04:21;25.30;95.60
53904;DHT22;39812;52.430;16.936;2022-08-01T09:06:48;25.00;95.20
53904;DHT22;39812;52.430;16.936;2022-08-01T09:09:13;24.40;95.60
53904;DHT22;39812;52.430;16.936;2022-08-01T09:11:39;24.40;96.00
53904;DHT22;39812;52.430;16.936;2022-08-01T09:14:05;24.30;96.30
53904;DHT22;39812;52.430;16.936;2022-08-01T09:16:32;24.50;96.00
53904;DHT22;39812;52.430;16.936;2022-08-01T09:19:12;24.40;95.80
53904;DHT22;39812;52.430;16.936;2022-08-01T09:21:39;24.40;96.20
53904;DHT22;39812;52.430;16.936;2022-08-01T09:24:13;24.30;96.10
53904;DHT22;39812;52.430;16.936;2022-08-01T09:26:48;24.20;96.70
53904;DHT22;39812;52.430;16.936;2022-08-01T09:29:24;24.60;96.00
53904;DHT22;39812;52.430;16.936;2022-08-01T09:31:50;24.80;95.70
53904;DHT22;39812;52.430;16.936;2022-08-01T09:34:27;24.70;95.70
53904;DHT22;39812;52.430;16.936;2022-08-01T09:36:57;25.00;95.50
53904;DHT22;39812;52.430;16.936;2022-08-01T09:39:28;25.20;95.20
53904;DHT22;39812;52.430;16.936;2022-08-01T09:41:56;25.90;94.70
53904;DHT22;39812;52.430;16.936;2022-08-01T09:44:39;25.90;94.50
53904;DHT22;39812;52.430;16.936;2022-08-01T09:47:05;26.10;94.00
53904;DHT22;39812;52.430;16.936;2022-08-01T09:49:35;26.00;94.00
53904;DHT22;39812;52.430;16.936;2022-08-01T09:52:15;26.10;94.00
53904;DHT22;39812;52.430;16.936;2022-08-01T09:54:42;25.90;93.90
53904;DHT22;39812;52.430;16.936;2022-08-01T09:57:15;26.20;94.20
53904;DHT22;39812;52.430;16.936;2022-08-01T09:59:46;26.10;93.90
53904;DHT22;39812;52.430;16.936;2022-08-01T10:02:13;26.60;93.40
53904;DHT22;39812;52.430;16.936;2022-08-01T10:04:51;26.90;92.90
53904;DHT22;39812;52.430;16.936;2022-08-01T10:07:17;27.10;92.80
53904;DHT22;39812;52.430;16.936;2022-08-01T10:09:43;26.80;92.60
53904;DHT22;39812;52.430;16.936;2022-08-01T10:12:10;26.70;92.80
53904;DHT22;39812;52.430;16.936;2022-08-01T10:14:38;26.70;92.90
53904;DHT22;39812;52.430;16.936;2022-08-01T10:17:07;26.60;92.80
53904;DHT22;39812;52.430;16.936;2022-08-01T10:19:35;26.70;92.60
53904;DHT22;39812;52.430;16.936;2022-08-01T10:22:05;26.70;92.80
53904;DHT22;39812;52.430;16.936;2022-08-01T10:24:36;27.20;92.50
53904;DHT22;39812;52.430;16.936;2022-08-01T10:27:04;27.30;92.40
53904;DHT22;39812;52.430;16.936;2022-08-01T10:29:37;27.50;91.70
53904;DHT22;39812;52.430;16.936;2022-08-01T10:32:06;27.30;91.70
53904;DHT22;39812;52.430;16.936;2022-08-01T10:34:35;27.50;91.50
53904;DHT22;39812;52.430;16.936;2022-08-01T10:37:01;27.80;91.10
53904;DHT22;39812;52.430;16.936;2022-08-01T10:39:26;27.70;90.90
53904;DHT22;39812;52.430;16.936;2022-08-01T10:41:55;27.20;91.40
53904;DHT22;39812;52.430;16.936;2022-08-01T10:44:23;27.20;91.40
53904;DHT22;39812;52.430;16.936;2022-08-01T10:46:53;27.20;91.60
53904;DHT22;39812;52.430;16.936;2022-08-01T10:49:20;26.90;91.90
53904;DHT22;39812;52.430;16.936;2022-08-01T10:51:47;26.70;92.10
53904;DHT22;39812;52.430;16.936;2022-08-01T10:54:13;26.60;92.60
53904;DHT22;39812;52.430;16.936;2022-08-01T10:56:50;26.40;92.60
53904;DHT22;39812;52.430;16.936;2022-08-01T10:59:23;26.30;92.70
53904;DHT22;39812;52.430;16.936;2022-08-01T11:02:03;26.10;92.90
53904;DHT22;39812;52.430;16.936;2022-08-01T11:07:43;25.60;93.90
53904;DHT22;39812;52.430;16.936;2022-08-01T11:10:24;25.50;93.80
53904;DHT22;39812;52.430;16.936;2022-08-01T11:12:50;25.40;94.10
53904;DHT22;39812;52.430;16.936;2022-08-01T11:15:18;25.20;94.40
53904;DHT22;39812;52.430;16.936;2022-08-01T11:17:50;25.20;94.40
53904;DHT22;39812;52.430;16.936;2022-08-01T11:20:18;25.10;95.00
53904;DHT22;39812;52.430;16.936;2022-08-01T11:28:21;25.90;96.20
53904;DHT22;39812;52.430;16.936;2022-08-01T11:30:50;26.40;95.50
53904;DHT22;39812;52.430;16.936;2022-08-01T11:33:18;26.30;95.00
53904;DHT22;39812;52.430;16.936;2022-08-01T11:38:35;28.10;94.40
53904;DHT22;39812;52.430;16.936;2022-08-01T11:41:27;28.80;93.10
53904;DHT22;39812;52.430;16.936;2022-08-01T11:44:13;29.70;91.90
53904;DHT22;39812;52.430;16.936;2022-08-01T11:46:49;28.70;91.40
53904;DHT22;39812;52.430;16.936;2022-08-01T11:52:02;26.00;99.90
53904;DHT22;39812;52.430;16.936;2022-08-01T11:54:30;25.80;99.90
53904;DHT22;39812;52.430;16.936;2022-08-01T11:56:58;26.30;99.40
53904;DHT22;39812;52.430;16.936;2022-08-01T11:59:24;26.70;96.10
53904;DHT22;39812;52.430;16.936;2022-08-01T12:01:49;27.20;95.50
53904;DHT22;39812;52.430;16.936;2022-08-01T12:04:15;28.00;96.10
53904;DHT22;39812;52.430;16.936;2022-08-01T12:06:40;29.10;94.00
53904;DHT22;39812;52.430;16.936;2022-08-01T12:09:19;28.90;92.10
53904;DHT22;39812;52.430;16.936;2022-08-01T12:11:45;29.20;92.70
53904;DHT22;39812;52.430;16.936;2022-08-01T12:14:20;28.90;93.10
53904;DHT22;39812;52.430;16.936;2022-08-01T12:16:53;28.70;92.70
53904;DHT22;39812;52.430;16.936;2022-08-01T12:19:20;28.60;93.00
53904;DHT22;39812;52.430;16.936;2022-08-01T12:22:05;28.20;93.40
53904;DHT22;39812;52.430;16.936;2022-08-01T12:24:31;28.00;93.60
53904;DHT22;39812;52.430;16.936;2022-08-01T12:26:56;27.90;93.40
53904;DHT22;39812;52.430;16.936;2022-08-01T12:29:39;27.90;94.00
53904;DHT22;39812;52.430;16.936;2022-08-01T12:32:21;28.20;93.20
53904;DHT22;39812;52.430;16.936;2022-08-01T12:34:47;28.30;92.30
53904;DHT22;39812;52.430;16.936;2022-08-01T12:37:13;28.50;92.50
53904;DHT22;39812;52.430;16.936;2022-08-01T12:39:38;28.30;92.90
53904;DHT22;39812;52.430;16.936;2022-08-01T12:42:08;28.90;92.40
53904;DHT22;39812;52.430;16.936;2022-08-01T12:44:35;28.80;92.20
53904;DHT22;39812;52.430;16.936;2022-08-01T12:47:02;28.60;91.80
53904;DHT22;39812;52.430;16.936;2022-08-01T12:49:28;28.50;92.20
53904;DHT22;39812;52.430;16.936;2022-08-01T12:51:54;27.70;93.00
53904;DHT22;39812;52.430;16.936;2022-08-01T12:54:21;26.80;93.70
53904;DHT22;39812;52.430;16.936;2022-08-01T12:56:47;26.50;93.70
53904;DHT22;39812;52.430;16.936;2022-08-01T12:59:27;26.50;94.60
53904;DHT22;39812;52.430;16.936;2022-08-01T13:01:53;26.90;94.30
53904;DHT22;39812;52.430;16.936;2022-08-01T13:04:21;27.20;93.50
53904;DHT22;39812;52.430;16.936;2022-08-01T13:06:47;27.60;92.60
53904;DHT22;39812;52.430;16.936;2022-08-01T13:09:13;27.80;92.70
53904;DHT22;39812;52.430;16.936;2022-08-01T13:11:40;27.50;93.20
53904;DHT22;39812;52.430;16.936;2022-08-01T13:14:06;27.50;93.10
53904;DHT22;39812;52.430;16.936;2022-08-01T13:16:31;27.40;93.50
53904;DHT22;39812;52.430;16.936;2022-08-01T13:18:57;27.90;92.40
53904;DHT22;39812;52.430;16.936;2022-08-01T13:26:50;32.60;89.60
53904;DHT22;39812;52.430;16.936;2022-08-01T13:29:17;36.30;80.80
53904;DHT22;39812;52.430;16.936;2022-08-01T13:31:44;36.20;77.80
53904;DHT22;39812;52.430;16.936;2022-08-01T13:34:10;30.90;82.30
53904;DHT22;39812;52.430;16.936;2022-08-01T13:36:37;29.80;86.00
53904;DHT22;39812;52.430;16.936;2022-08-01T13:39:03;29.30;88.10
53904;DHT22;39812;52.430;16.936;2022-08-01T13:41:47;29.40;89.30
53904;DHT22;39812;52.430;16.936;2022-08-01T13:44:13;30.90;87.30
53904;DHT22;39812;52.430;16.936;2022-08-01T13:46:41;33.20;83.60
53904;DHT22;39812;52.430;16.936;2022-08-01T13:49:07;36.50;77.00
53904;DHT22;39812;52.430;16.936;2022-08-01T13:51:33;38.40;71.40
53904;DHT22;39812;52.430;16.936;2022-08-01T13:53:59;40.20;65.70
53904;DHT22;39812;52.430;16.936;2022-08-01T13:56:26;38.50;61.40
53904;DHT22;39812;52.430;16.936;2022-08-01T13:58:56;37.40;63.20
53904;DHT22;39812;52.430;16.936;2022-08-01T14:01:22;35.80;65.10
53904;DHT22;39812;52.430;16.936;2022-08-01T14:03:47;35.90;64.40
53904;DHT22;39812;52.430;16.936;2022-08-01T14:06:14;33.50;67.30
53904;DHT22;39812;52.430;16.936;2022-08-01T14:08:44;31.90;70.10
53904;DHT22;39812;52.430;16.936;2022-08-01T14:11:10;30.20;71.50
53904;DHT22;39812;52.430;16.936;2022-08-01T14:13:36;28.50;76.80
53904;DHT22;39812;52.430;16.936;2022-08-01T14:16:05;27.50;79.20
53904;DHT22;39812;52.430;16.936;2022-08-01T14:18:32;26.90;82.30
53904;DHT22;39812;52.430;16.936;2022-08-01T14:20:58;26.70;83.80
53904;DHT22;39812;52.430;16.936;2022-08-01T14:23:23;26.50;83.40
53904;DHT22;39812;52.430;16.936;2022-08-01T14:25:49;26.20;84.50
53904;DHT22;39812;52.430;16.936;2022-08-01T14:28:15;26.10;85.60
53904;DHT22;39812;52.430;16.936;2022-08-01T14:30:40;26.10;86.30
53904;DHT22;39812;52.430;16.936;2022-08-01T14:33:10;26.10;86.20
53904;DHT22;39812;52.430;16.936;2022-08-01T14:35:36;26.10;86.70
53904;DHT22;39812;52.430;16.936;2022-08-01T14:38:01;26.40;87.20
53904;DHT22;39812;52.430;16.936;2022-08-01T14:40:27;27.30;85.20
53904;DHT22;39812;52.430;16.936;2022-08-01T14:42:53;27.50;84.60
53904;DHT22;39812;52.430;16.936;2022-08-01T14:45:18;27.50;84.30
53904;DHT22;39812;52.430;16.936;2022-08-01T14:47:44;27.70;83.90
53904;DHT22;39812;52.430;16.936;2022-08-01T14:50:12;27.60;82.60
53904;DHT22;39812;52.430;16.936;2022-08-01T14:52:38;27.50;83.10
53904;DHT22;39812;52.430;16.936;2022-08-01T14:55:06;27.30;83.90
53904;DHT22;39812;52.430;16.936;2022-08-01T14:57:32;27.50;83.30
53904;DHT22;39812;52.430;16.936;2022-08-01T14:59:58;27.30;83.50
53904;DHT22;39812;52.430;16.936;2022-08-01T15:02:23;27.20;84.40
53904;DHT22;39812;52.430;16.936;2022-08-01T15:04:49;27.30;83.70
53904;DHT22;39812;52.430;16.936;2022-08-01T15:07:16;27.20;84.10
53904;DHT22;39812;52.430;16.936;2022-08-01T15:09:42;31.20;79.50
53904;DHT22;39812;52.430;16.936;2022-08-01T15:12:08;32.90;73.80
53904;DHT22;39812;52.430;16.936;2022-08-01T15:14:34;33.70;72.50
53904;DHT22;39812;52.430;16.936;2022-08-01T15:17:20;31.50;74.10
53904;DHT22;39812;52.430;16.936;2022-08-01T15:19:51;31.10;75.60
53904;DHT22;39812;52.430;16.936;2022-08-01T15:22:18;30.40;75.50
53904;DHT22;39812;52.430;16.936;2022-08-01T15:24:44;29.50;76.10
53904;DHT22;39812;52.430;16.936;2022-08-01T15:27:10;29.10;78.10
53904;DHT22;39812;52.430;16.936;2022-08-01T15:29:36;28.90;78.20
53904;DHT22;39812;52.430;16.936;2022-08-01T15:32:03;29.40;78.10
53904;DHT22;39812;52.430;16.936;2022-08-01T15:34:30;29.70;77.20
53904;DHT22;39812;52.430;16.936;2022-08-01T15:36:56;29.10;77.20
53904;DHT22;39812;52.430;16.936;2022-08-01T15:39:22;31.20;75.90
53904;DHT22;39812;52.430;16.936;2022-08-01T15:41:48;32.30;72.00
53904;DHT22;39812;52.430;16.936;2022-08-01T15:44:13;32.30;71.80